Shelby, Wisconsin
Current Conditions -  °F | °C
As of 4:00 AM on Friday 28 Nov 2014 (Local Time) from KLSE Reporting Station
Light Snow Light Snow  
Wind Chill:   Ceiling: 2900
Heat Index: 14°   Visibility: 3mi
Dew Point:   Wind: 7mph
Humidity: 80%   Direction: 120°ESE
Pressure: 30.22"   Gusts: NA
Location:  43.8°N, 91.145°W
Report Text: KLSE 281000Z AUTO 12006KT 3SM -SN OVC029 M10/M13 A3022 RMK AO2 P0000 T11001128
Loading
Personal Weather Stations






























Interactive Weather Map New forecast layout! Learn more

10-Day Weather Forecast

Advertisements
Track Severe Weather on mobile